createdAt,value
2022-10-11T01:15:44.687Z,4.53
2022-10-11T02:46:42.679Z,3.25
2022-10-11T09:17:56.201Z,2.58
2022-10-11T09:28:24.795Z,3.75
2022-10-11T09:38:51.683Z,2.05
2022-10-11T09:49:06.013Z,1.70
2022-10-11T10:00:06.684Z,2.40
2022-10-11T10:10:37.427Z,1.60
2022-10-11T10:21:00.209Z,2.15
2022-10-11T10:31:30.588Z,2.15
2022-10-11T10:41:43.454Z,2.10
2022-10-11T10:52:15.607Z,2.00
2022-10-11T11:02:41.751Z,4.53
2022-10-11T11:12:54.367Z,2.40
2022-10-11T11:23:11.840Z,2.08
2022-10-11T11:33:29.432Z,3.55
2022-10-11T11:43:44.538Z,1.85
2022-10-11T11:54:07.430Z,3.10
2022-10-11T12:04:29.604Z,2.08
2022-10-11T12:14:43.165Z,2.25
2022-10-11T12:24:59.265Z,3.05
2022-10-11T12:35:45.168Z,3.45
2022-10-11T12:45:57.220Z,3.05
2022-10-11T12:56:10.079Z,3.60
2022-10-11T13:06:25.985Z,2.53
2022-10-11T13:16:49.486Z,2.45
2022-10-11T13:26:59.887Z,2.20
2022-10-11T13:37:07.760Z,2.55
2022-10-11T13:47:18.677Z,3.17
2022-10-11T13:57:35.627Z,2.05
2022-10-11T14:07:45.009Z,2.15
2022-10-11T14:17:52.163Z,2.00
2022-10-11T14:28:18.654Z,2.65
2022-10-11T14:38:58.668Z,2.58
2022-10-11T14:49:14.055Z,4.47
2022-10-11T14:59:24.297Z,2.78
2022-10-11T15:09:51.970Z,2.22
2022-10-11T15:20:06.135Z,3.72
2022-10-11T15:30:21.649Z,2.72
2022-10-11T15:40:36.333Z,4.40
2022-10-11T15:50:45.316Z,4.03
2022-10-11T16:00:55.037Z,5.95
2022-10-11T16:11:04.566Z,3.60
2022-10-11T16:21:13.711Z,6.03
2022-10-11T16:31:22.727Z,5.18
2022-10-11T16:41:29.883Z,4.63
2022-10-11T16:51:38.453Z,5.82
2022-10-11T17:01:46.040Z,4.05
2022-10-11T17:11:55.514Z,4.25
2022-10-11T17:22:02.684Z,3.88
2022-10-11T17:32:11.569Z,3.97
2022-10-11T17:42:18.537Z,5.18
2022-10-11T17:52:27.227Z,3.38
2022-10-11T18:02:34.357Z,4.65
2022-10-11T18:12:43.625Z,5.75
2022-10-11T18:22:51.976Z,4.55
2022-10-11T18:33:00.933Z,3.78
2022-10-11T18:43:08.019Z,5.07
2022-10-11T18:53:16.622Z,8.27
2022-10-11T19:03:23.676Z,6.63
2022-10-11T19:13:34.102Z,6.78
2022-10-11T19:23:42.993Z,6.15
2022-10-11T19:33:51.801Z,6.15
2022-10-11T19:43:59.966Z,7.55
2022-10-11T19:54:15.628Z,6.05
2022-10-11T20:14:52.357Z,6.63
2022-10-11T20:24:59.412Z,7.38
2022-10-11T20:35:10.145Z,4.20
2022-10-11T20:45:17.256Z,3.72
2022-10-11T20:55:26.019Z,3.97
2022-10-11T21:05:33.288Z,3.08
2022-10-11T21:15:41.845Z,4.78
2022-10-11T21:25:48.796Z,4.45
2022-10-11T21:35:58.509Z,6.70
2022-10-11T21:46:12.787Z,5.45
2022-10-11T21:56:21.936Z,4.00
2022-10-11T22:06:29.451Z,5.70
2022-10-11T22:16:38.749Z,4.60
2022-10-11T22:26:45.772Z,6.32
2022-10-11T22:36:54.585Z,5.82
2022-10-11T22:47:01.495Z,4.70
2022-10-11T22:57:10.278Z,5.17
2022-10-11T23:07:18.062Z,4.60
2022-10-11T23:17:26.669Z,3.53
2022-10-11T23:27:34.216Z,3.83
2022-10-11T23:37:42.952Z,2.70
2022-10-11T23:47:50.092Z,3.08
2022-10-11T23:57:58.797Z,2.38
